AirNav   Pilot Hours Calculator
 
 859 users online  

IS66 Rhea Airport
Pontoosuc, Illinois, USA

GOING TO PONTOOSUC?


FAA INFORMATION EFFECTIVE 01 DECEMBER 2022

Location

FAA Identifier: IS66
Lat/Long: 40-35-32.1520N 091-12-05.5280W
40-35.535867N 091-12.092133W
40.5922644,-91.2015356
(estimated)
Elevation: 684 ft. / 208 m (estimated)
Variation: 02E (1985)
From city: 2 miles S of PONTOOSUC, IL
Time zone: UTC -6 (UTC -5 during Daylight Saving Time)
Zip code: 62358

Airport Operations

Airport use: Private use. Permission required prior to landing
Activation date: 05/1981
Control tower: no
ARTCC: CHICAGO CENTER
FSS: SAINT LOUIS FLIGHT SERVICE STATION
Attendance: UNATNDD
Wind indicator: yes
Segmented circle: no

Airport Communications

WX AWOS-3 at FSW (7 nm NW): 120.925 (319-372-5147)
WX ASOS at BRL (12 nm N): 118.025 (319-752-6246)
WX AWOS-3 at EOK (13 nm SW): 118.375 (319-524-7884)

Nearby radio navigation aids

VOR radial/distance  VOR name  Freq  Var
BRLr233/14.8BURLINGTON VOR/DME111.4005E

 
NDB name  Hdg/Dist  Freq  Var  ID
BURNS223/5.239001EBR -... .-.
KEOKUK052/13.136602EEOK . --- -.-
MACOMB278/29.625101EJZY .--- --.. -.--

Airport Services

Runway Information

Runway 9/27

Dimensions: 2000 x 70 ft. / 610 x 21 m
Surface: turf
RUNWAY 9  RUNWAY 27
Traffic pattern: leftright

Airport Ownership and Management from official FAA records

Ownership: Privately-owned
Owner: MARY A. RHEA TRUST
Manager: JAMIE W. RHEA
1575 ECR 2700
NIOTA, IL 62358
Phone 217-755-4206

Airport Operational Statistics

Aircraft based on the field: 1
Single engine airplanes: 1
    

Additional Remarks

FOR CD CTC CHICAGO ARTCC AT 630-906-8921.

Instrument Procedures

There are no published instrument procedures at IS66.

Some nearby airports with instrument procedures:

KFSW - Fort Madison Municipal Airport (7 nm NW)
KBRL - Southeast Iowa Regional Airport (12 nm N)
KEOK - Keokuk Municipal Airport (13 nm SW)
KMQB - Macomb Municipal Airport (25 nm E)
KMPZ - Mount Pleasant Municipal Airport (25 nm NW)
 
Loc | Ops | Rwys | IFR | FBO | Links
Com | Nav | Svcs | Stats | Notes
Area around IS66 (Rhea Airport)
 
Road maps at: MapQuest Bing Google
 
Aerial photo
No photo
 
Sectional chart

 
Airport distance calculator
Flying to Rhea Airport? Find the distance to fly.

From to IS66

Sunrise and sunset
Times for 07-Dec-2022
 Local
(UTC-6)
 Zulu
(UTC)
Morning civil twilight06:4512:45
Sunrise07:1613:16
Sunset16:3722:37
Evening civil twilight17:0723:07

Current date and time
Zulu (UTC)  07-Dec-2022 12:23:09
Local (UTC-6)  07-Dec-2022 06:23:09
 
METAR
KFSW 
7nm NW 
071155Z AUTO 12003KT 1/2SM FZFG M01/M01 A3016 RMK AO2
KBRL 
11nm N 
071153Z AUTO 00000KT 1/4SM FZFG VV001 M02/M02 A3017 RMK AO2 SLP222 I1001 I6002 T10171022 10022 21039 53010
KEOK 
12nm SW 
071155Z AUTO 14003KT 1 1/2SM BR BKN027 OVC031 M00/M00 A3017 RMK A01
TAF
KBRL 
11nm N 
071134Z 0712/0812 VRB03KT 1/4SM FG VV001 TEMPO 0714/0716 1SM BR OVC003 FM071600 VRB04KT P6SM SCT040 FM080000 02005KT P6SM SCT250
NOTAMs
Click for the latest NOTAMs
NOTAMs are issued by the DoD/FAA and will open in a separate window not controlled by AirNav.

 

 
 

Would you like to see your business listed on this page?

 If your business provides an interesting product or service to pilots, flight crews, aircraft, or users of the Rhea Airport, you should consider listing it here.  To start the listing process, click on the button below
 
Add a business
 

Other Pages about Rhea Airport

Update a link
 
Copyright © AirNav, LLC. All rights reserved. Privacy Policy  Contact